sensor_id;sensor_type;location;lat;lon;timestamp;P1;durP1;ratioP1;P2;durP2;ratioP2
59312;SDS011;45084;51.486;7.366;2023-12-20T00:00:59;36.22;;;20.23;;
59312;SDS011;45084;51.486;7.366;2023-12-20T00:03:25;31.40;;;19.50;;
59312;SDS011;45084;51.486;7.366;2023-12-20T00:05:50;33.22;;;19.95;;
59312;SDS011;45084;51.486;7.366;2023-12-20T00:08:16;31.17;;;19.80;;
59312;SDS011;45084;51.486;7.366;2023-12-20T00:10:43;34.38;;;19.45;;
59312;SDS011;45084;51.486;7.366;2023-12-20T00:13:09;30.33;;;18.35;;
59312;SDS011;45084;51.486;7.366;2023-12-20T00:15:35;31.77;;;18.52;;
59312;SDS011;45084;51.486;7.366;2023-12-20T00:18:00;27.83;;;17.45;;
59312;SDS011;45084;51.486;7.366;2023-12-20T00:20:26;34.90;;;17.92;;
59312;SDS011;45084;51.486;7.366;2023-12-20T00:22:55;27.85;;;17.38;;
59312;SDS011;45084;51.486;7.366;2023-12-20T00:25:22;30.52;;;18.60;;
59312;SDS011;45084;51.486;7.366;2023-12-20T00:27:48;28.73;;;17.67;;
59312;SDS011;45084;51.486;7.366;2023-12-20T00:30:14;31.73;;;19.00;;
59312;SDS011;45084;51.486;7.366;2023-12-20T00:32:39;29.80;;;19.05;;
59312;SDS011;45084;51.486;7.366;2023-12-20T00:35:11;29.80;;;17.33;;
59312;SDS011;45084;51.486;7.366;2023-12-20T00:37:37;20.83;;;13.07;;
59312;SDS011;45084;51.486;7.366;2023-12-20T00:40:02;27.75;;;16.70;;
59312;SDS011;45084;51.486;7.366;2023-12-20T00:42:28;25.10;;;15.48;;
59312;SDS011;45084;51.486;7.366;2023-12-20T00:44:59;26.35;;;14.90;;
59312;SDS011;45084;51.486;7.366;2023-12-20T00:47:25;22.45;;;14.73;;
59312;SDS011;45084;51.486;7.366;2023-12-20T00:49:51;25.38;;;15.10;;
59312;SDS011;45084;51.486;7.366;2023-12-20T00:52:17;17.05;;;9.30;;
59312;SDS011;45084;51.486;7.366;2023-12-20T00:54:43;20.58;;;10.60;;
59312;SDS011;45084;51.486;7.366;2023-12-20T00:57:09;18.15;;;9.25;;
59312;SDS011;45084;51.486;7.366;2023-12-20T00:59:34;20.50;;;10.23;;
59312;SDS011;45084;51.486;7.366;2023-12-20T01:02:00;19.20;;;11.95;;
59312;SDS011;45084;51.486;7.366;2023-12-20T01:04:26;19.83;;;10.90;;
59312;SDS011;45084;51.486;7.366;2023-12-20T01:06:52;19.50;;;11.02;;
59312;SDS011;45084;51.486;7.366;2023-12-20T01:09:18;19.88;;;10.27;;
59312;SDS011;45084;51.486;7.366;2023-12-20T01:11:44;15.70;;;8.27;;
59312;SDS011;45084;51.486;7.366;2023-12-20T01:14:11;16.27;;;8.10;;
59312;SDS011;45084;51.486;7.366;2023-12-20T01:16:37;21.30;;;8.93;;
59312;SDS011;45084;51.486;7.366;2023-12-20T01:19:03;21.42;;;8.82;;
59312;SDS011;45084;51.486;7.366;2023-12-20T01:21:28;15.85;;;7.78;;
59312;SDS011;45084;51.486;7.366;2023-12-20T01:23:54;17.45;;;8.13;;
59312;SDS011;45084;51.486;7.366;2023-12-20T01:26:19;14.02;;;7.78;;
59312;SDS011;45084;51.486;7.366;2023-12-20T01:28:45;11.35;;;7.45;;
59312;SDS011;45084;51.486;7.366;2023-12-20T01:31:11;17.33;;;8.00;;
59312;SDS011;45084;51.486;7.366;2023-12-20T01:33:36;15.90;;;7.65;;
59312;SDS011;45084;51.486;7.366;2023-12-20T01:36:02;16.42;;;7.88;;
59312;SDS011;45084;51.486;7.366;2023-12-20T01:38:28;14.43;;;7.68;;
59312;SDS011;45084;51.486;7.366;2023-12-20T01:40:54;22.02;;;8.68;;
59312;SDS011;45084;51.486;7.366;2023-12-20T01:43:20;18.13;;;7.55;;
59312;SDS011;45084;51.486;7.366;2023-12-20T01:45:46;18.75;;;9.02;;
59312;SDS011;45084;51.486;7.366;2023-12-20T01:48:12;18.77;;;8.52;;
59312;SDS011;45084;51.486;7.366;2023-12-20T01:50:39;17.83;;;8.50;;
59312;SDS011;45084;51.486;7.366;2023-12-20T01:53:06;22.27;;;8.38;;
59312;SDS011;45084;51.486;7.366;2023-12-20T01:55:34;19.95;;;8.48;;
59312;SDS011;45084;51.486;7.366;2023-12-20T01:58:03;11.50;;;6.70;;
59312;SDS011;45084;51.486;7.366;2023-12-20T02:00:29;16.17;;;8.15;;
59312;SDS011;45084;51.486;7.366;2023-12-20T02:02:56;13.55;;;7.65;;
59312;SDS011;45084;51.486;7.366;2023-12-20T02:05:24;17.65;;;8.45;;
59312;SDS011;45084;51.486;7.366;2023-12-20T02:07:50;13.05;;;7.70;;
59312;SDS011;45084;51.486;7.366;2023-12-20T02:10:16;15.65;;;7.57;;
59312;SDS011;45084;51.486;7.366;2023-12-20T02:12:42;14.32;;;7.35;;
59312;SDS011;45084;51.486;7.366;2023-12-20T02:15:07;17.25;;;8.05;;
59312;SDS011;45084;51.486;7.366;2023-12-20T02:17:33;11.23;;;6.70;;
59312;SDS011;45084;51.486;7.366;2023-12-20T02:19:59;20.13;;;7.97;;
59312;SDS011;45084;51.486;7.366;2023-12-20T02:22:24;24.38;;;9.07;;
59312;SDS011;45084;51.486;7.366;2023-12-20T02:24:50;14.15;;;6.78;;
59312;SDS011;45084;51.486;7.366;2023-12-20T02:27:16;14.35;;;6.95;;
59312;SDS011;45084;51.486;7.366;2023-12-20T02:29:44;16.73;;;6.70;;
59312;SDS011;45084;51.486;7.366;2023-12-20T02:32:13;16.88;;;6.15;;
59312;SDS011;45084;51.486;7.366;2023-12-20T02:34:38;11.10;;;5.50;;
59312;SDS011;45084;51.486;7.366;2023-12-20T02:37:04;17.23;;;6.63;;
59312;SDS011;45084;51.486;7.366;2023-12-20T02:39:30;13.05;;;5.78;;
59312;SDS011;45084;51.486;7.366;2023-12-20T02:41:55;18.75;;;6.10;;
59312;SDS011;45084;51.486;7.366;2023-12-20T02:44:21;14.48;;;5.63;;
59312;SDS011;45084;51.486;7.366;2023-12-20T02:46:47;16.50;;;6.60;;
59312;SDS011;45084;51.486;7.366;2023-12-20T02:49:12;16.02;;;6.57;;
59312;SDS011;45084;51.486;7.366;2023-12-20T02:51:38;21.92;;;6.65;;
59312;SDS011;45084;51.486;7.366;2023-12-20T02:54:04;16.52;;;7.15;;
59312;SDS011;45084;51.486;7.366;2023-12-20T02:56:30;18.13;;;7.28;;
59312;SDS011;45084;51.486;7.366;2023-12-20T02:58:56;21.05;;;8.30;;
59312;SDS011;45084;51.486;7.366;2023-12-20T03:01:22;12.93;;;7.22;;
59312;SDS011;45084;51.486;7.366;2023-12-20T03:03:47;21.23;;;7.80;;
59312;SDS011;45084;51.486;7.366;2023-12-20T03:06:16;18.95;;;8.23;;
59312;SDS011;45084;51.486;7.366;2023-12-20T03:08:43;14.73;;;7.85;;
59312;SDS011;45084;51.486;7.366;2023-12-20T03:11:09;20.45;;;8.48;;
59312;SDS011;45084;51.486;7.366;2023-12-20T03:13:34;16.75;;;8.55;;
59312;SDS011;45084;51.486;7.366;2023-12-20T03:16:00;15.27;;;8.07;;
59312;SDS011;45084;51.486;7.366;2023-12-20T03:18:26;25.38;;;8.10;;
59312;SDS011;45084;51.486;7.366;2023-12-20T03:20:53;31.35;;;9.13;;
59312;SDS011;45084;51.486;7.366;2023-12-20T03:23:19;17.48;;;7.68;;
59312;SDS011;45084;51.486;7.366;2023-12-20T03:25:44;22.00;;;8.05;;
59312;SDS011;45084;51.486;7.366;2023-12-20T03:28:10;18.40;;;8.55;;
59312;SDS011;45084;51.486;7.366;2023-12-20T03:30:35;19.63;;;9.25;;
59312;SDS011;45084;51.486;7.366;2023-12-20T03:33:01;25.15;;;9.23;;
59312;SDS011;45084;51.486;7.366;2023-12-20T03:35:27;19.25;;;9.38;;
59312;SDS011;45084;51.486;7.366;2023-12-20T03:37:52;13.98;;;8.48;;
59312;SDS011;45084;51.486;7.366;2023-12-20T03:40:18;23.45;;;9.65;;
59312;SDS011;45084;51.486;7.366;2023-12-20T03:42:43;24.17;;;9.60;;
59312;SDS011;45084;51.486;7.366;2023-12-20T03:45:09;26.33;;;10.40;;
59312;SDS011;45084;51.486;7.366;2023-12-20T03:47:35;14.40;;;8.63;;
59312;SDS011;45084;51.486;7.366;2023-12-20T03:50:00;20.55;;;8.98;;
59312;SDS011;45084;51.486;7.366;2023-12-20T03:52:26;19.15;;;9.00;;
59312;SDS011;45084;51.486;7.366;2023-12-20T03:54:51;20.52;;;8.90;;
59312;SDS011;45084;51.486;7.366;2023-12-20T03:57:17;20.92;;;8.55;;
59312;SDS011;45084;51.486;7.366;2023-12-20T03:59:42;21.67;;;8.77;;
59312;SDS011;45084;51.486;7.366;2023-12-20T04:02:08;21.02;;;8.77;;
59312;SDS011;45084;51.486;7.366;2023-12-20T04:04:33;16.75;;;8.20;;
59312;SDS011;45084;51.486;7.366;2023-12-20T04:06:59;17.70;;;7.80;;
59312;SDS011;45084;51.486;7.366;2023-12-20T04:09:25;17.67;;;7.80;;
59312;SDS011;45084;51.486;7.366;2023-12-20T04:11:50;22.35;;;7.63;;
59312;SDS011;45084;51.486;7.366;2023-12-20T04:14:16;19.45;;;7.55;;
59312;SDS011;45084;51.486;7.366;2023-12-20T04:16:44;16.75;;;7.22;;
59312;SDS011;45084;51.486;7.366;2023-12-20T04:19:10;21.80;;;7.38;;
59312;SDS011;45084;51.486;7.366;2023-12-20T04:21:36;17.45;;;7.68;;
59312;SDS011;45084;51.486;7.366;2023-12-20T04:24:01;17.75;;;6.40;;
59312;SDS011;45084;51.486;7.366;2023-12-20T04:26:27;17.20;;;7.68;;
59312;SDS011;45084;51.486;7.366;2023-12-20T04:28:52;19.00;;;6.47;;
59312;SDS011;45084;51.486;7.366;2023-12-20T04:31:18;19.70;;;7.22;;
59312;SDS011;45084;51.486;7.366;2023-12-20T04:33:44;22.27;;;7.10;;
59312;SDS011;45084;51.486;7.366;2023-12-20T04:36:09;12.85;;;5.43;;
59312;SDS011;45084;51.486;7.366;2023-12-20T04:38:35;17.85;;;6.97;;
59312;SDS011;45084;51.486;7.366;2023-12-20T04:41:00;18.20;;;7.22;;
59312;SDS011;45084;51.486;7.366;2023-12-20T04:43:26;16.98;;;7.03;;
59312;SDS011;45084;51.486;7.366;2023-12-20T04:45:51;21.90;;;7.10;;
59312;SDS011;45084;51.486;7.366;2023-12-20T04:48:17;19.75;;;7.18;;
59312;SDS011;45084;51.486;7.366;2023-12-20T04:50:42;24.42;;;7.68;;
59312;SDS011;45084;51.486;7.366;2023-12-20T04:53:08;15.77;;;7.07;;
59312;SDS011;45084;51.486;7.366;2023-12-20T04:55:34;23.42;;;8.60;;
59312;SDS011;45084;51.486;7.366;2023-12-20T04:57:59;22.58;;;8.65;;
59312;SDS011;45084;51.486;7.366;2023-12-20T05:00:25;20.38;;;8.35;;
59312;SDS011;45084;51.486;7.366;2023-12-20T05:02:50;28.02;;;8.15;;
59312;SDS011;45084;51.486;7.366;2023-12-20T05:05:16;23.35;;;8.10;;
59312;SDS011;45084;51.486;7.366;2023-12-20T05:07:42;20.48;;;7.72;;
59312;SDS011;45084;51.486;7.366;2023-12-20T05:10:08;18.23;;;7.82;;
59312;SDS011;45084;51.486;7.366;2023-12-20T05:12:34;31.08;;;8.85;;
59312;SDS011;45084;51.486;7.366;2023-12-20T05:15:00;29.55;;;9.02;;
59312;SDS011;45084;51.486;7.366;2023-12-20T05:17:25;17.38;;;7.55;;
59312;SDS011;45084;51.486;7.366;2023-12-20T05:19:51;15.80;;;7.72;;
59312;SDS011;45084;51.486;7.366;2023-12-20T05:22:17;18.50;;;7.35;;
59312;SDS011;45084;51.486;7.366;2023-12-20T05:24:44;26.13;;;8.18;;
59312;SDS011;45084;51.486;7.366;2023-12-20T05:27:10;22.50;;;8.43;;
59312;SDS011;45084;51.486;7.366;2023-12-20T05:29:36;18.90;;;8.50;;
59312;SDS011;45084;51.486;7.366;2023-12-20T05:32:02;21.35;;;8.05;;
59312;SDS011;45084;51.486;7.366;2023-12-20T05:34:29;26.25;;;8.10;;
59312;SDS011;45084;51.486;7.366;2023-12-20T05:36:55;20.75;;;7.85;;
59312;SDS011;45084;51.486;7.366;2023-12-20T05:39:21;21.10;;;7.82;;
59312;SDS011;45084;51.486;7.366;2023-12-20T05:41:47;14.90;;;6.80;;
59312;SDS011;45084;51.486;7.366;2023-12-20T05:44:12;21.05;;;8.63;;
59312;SDS011;45084;51.486;7.366;2023-12-20T05:46:38;26.27;;;7.97;;
59312;SDS011;45084;51.486;7.366;2023-12-20T05:49:05;19.60;;;8.00;;
59312;SDS011;45084;51.486;7.366;2023-12-20T05:51:31;20.17;;;7.35;;
59312;SDS011;45084;51.486;7.366;2023-12-20T05:53:58;13.27;;;8.10;;
59312;SDS011;45084;51.486;7.366;2023-12-20T05:56:24;22.10;;;8.05;;
59312;SDS011;45084;51.486;7.366;2023-12-20T05:58:49;24.90;;;8.48;;
59312;SDS011;45084;51.486;7.366;2023-12-20T06:01:15;22.25;;;8.82;;
59312;SDS011;45084;51.486;7.366;2023-12-20T06:03:42;25.30;;;9.23;;
59312;SDS011;45084;51.486;7.366;2023-12-20T06:06:08;20.58;;;8.60;;
59312;SDS011;45084;51.486;7.366;2023-12-20T06:08:34;22.38;;;8.73;;
59312;SDS011;45084;51.486;7.366;2023-12-20T06:11:00;22.50;;;7.78;;
59312;SDS011;45084;51.486;7.366;2023-12-20T06:13:26;22.10;;;8.48;;
59312;SDS011;45084;51.486;7.366;2023-12-20T06:15:52;24.58;;;9.57;;
59312;SDS011;45084;51.486;7.366;2023-12-20T06:18:19;29.63;;;9.52;;
59312;SDS011;45084;51.486;7.366;2023-12-20T06:20:44;25.55;;;11.40;;
59312;SDS011;45084;51.486;7.366;2023-12-20T06:23:10;25.55;;;9.48;;
59312;SDS011;45084;51.486;7.366;2023-12-20T06:25:36;20.00;;;10.35;;
59312;SDS011;45084;51.486;7.366;2023-12-20T06:28:01;19.55;;;9.95;;
59312;SDS011;45084;51.486;7.366;2023-12-20T06:30:27;25.60;;;10.90;;
59312;SDS011;45084;51.486;7.366;2023-12-20T06:32:53;28.23;;;11.63;;
59312;SDS011;45084;51.486;7.366;2023-12-20T06:35:19;29.92;;;10.73;;
59312;SDS011;45084;51.486;7.366;2023-12-20T06:37:45;29.95;;;11.68;;
59312;SDS011;45084;51.486;7.366;2023-12-20T06:40:11;26.92;;;11.68;;
59312;SDS011;45084;51.486;7.366;2023-12-20T06:42:37;24.58;;;11.30;;
59312;SDS011;45084;51.486;7.366;2023-12-20T06:45:02;29.38;;;11.13;;
59312;SDS011;45084;51.486;7.366;2023-12-20T06:47:28;23.73;;;10.90;;
59312;SDS011;45084;51.486;7.366;2023-12-20T06:49:54;21.33;;;11.00;;
59312;SDS011;45084;51.486;7.366;2023-12-20T06:52:20;23.05;;;11.23;;
59312;SDS011;45084;51.486;7.366;2023-12-20T06:54:45;21.42;;;10.18;;
59312;SDS011;45084;51.486;7.366;2023-12-20T06:57:11;21.48;;;10.60;;
59312;SDS011;45084;51.486;7.366;2023-12-20T06:59:40;28.15;;;11.90;;
59312;SDS011;45084;51.486;7.366;2023-12-20T07:02:06;20.80;;;10.73;;
59312;SDS011;45084;51.486;7.366;2023-12-20T07:04:33;21.17;;;9.65;;
59312;SDS011;45084;51.486;7.366;2023-12-20T07:06:58;20.08;;;10.25;;
59312;SDS011;45084;51.486;7.366;2023-12-20T07:09:25;24.17;;;10.45;;
59312;SDS011;45084;51.486;7.366;2023-12-20T07:11:51;25.42;;;10.85;;
59312;SDS011;45084;51.486;7.366;2023-12-20T07:14:17;22.15;;;10.52;;
59312;SDS011;45084;51.486;7.366;2023-12-20T07:16:43;20.90;;;10.57;;
59312;SDS011;45084;51.486;7.366;2023-12-20T07:19:08;23.40;;;10.80;;
59312;SDS011;45084;51.486;7.366;2023-12-20T07:21:34;23.05;;;10.80;;
59312;SDS011;45084;51.486;7.366;2023-12-20T07:24:00;25.98;;;10.25;;
59312;SDS011;45084;51.486;7.366;2023-12-20T07:26:25;18.15;;;9.25;;
59312;SDS011;45084;51.486;7.366;2023-12-20T07:28:51;21.08;;;9.55;;
59312;SDS011;45084;51.486;7.366;2023-12-20T07:31:16;19.08;;;9.23;;
59312;SDS011;45084;51.486;7.366;2023-12-20T07:33:42;23.83;;;9.18;;
59312;SDS011;45084;51.486;7.366;2023-12-20T07:36:08;24.13;;;9.75;;
59312;SDS011;45084;51.486;7.366;2023-12-20T07:38:33;24.23;;;8.98;;
59312;SDS011;45084;51.486;7.366;2023-12-20T07:40:59;14.52;;;7.93;;
59312;SDS011;45084;51.486;7.366;2023-12-20T07:43:25;22.20;;;8.48;;
59312;SDS011;45084;51.486;7.366;2023-12-20T07:45:50;20.73;;;7.93;;
59312;SDS011;45084;51.486;7.366;2023-12-20T07:48:16;18.60;;;8.57;;
59312;SDS011;45084;51.486;7.366;2023-12-20T07:50:42;17.50;;;8.30;;
59312;SDS011;45084;51.486;7.366;2023-12-20T07:53:08;14.45;;;7.63;;
59312;SDS011;45084;51.486;7.366;2023-12-20T07:55:33;18.25;;;8.48;;
59312;SDS011;45084;51.486;7.366;2023-12-20T07:57:59;23.00;;;9.05;;
59312;SDS011;45084;51.486;7.366;2023-12-20T08:00:25;20.48;;;8.43;;
59312;SDS011;45084;51.486;7.366;2023-12-20T08:02:51;23.35;;;8.65;;
59312;SDS011;45084;51.486;7.366;2023-12-20T08:05:17;21.50;;;8.95;;
59312;SDS011;45084;51.486;7.366;2023-12-20T08:07:43;17.60;;;8.52;;
59312;SDS011;45084;51.486;7.366;2023-12-20T08:10:08;16.13;;;7.70;;
59312;SDS011;45084;51.486;7.366;2023-12-20T08:12:34;24.38;;;9.45;;
59312;SDS011;45084;51.486;7.366;2023-12-20T08:15:00;26.48;;;8.20;;
59312;SDS011;45084;51.486;7.366;2023-12-20T08:17:26;20.20;;;8.73;;
59312;SDS011;45084;51.486;7.366;2023-12-20T08:19:52;21.98;;;8.60;;
59312;SDS011;45084;51.486;7.366;2023-12-20T08:22:18;23.17;;;8.82;;
59312;SDS011;45084;51.486;7.366;2023-12-20T08:24:43;19.98;;;7.50;;
59312;SDS011;45084;51.486;7.366;2023-12-20T08:27:09;16.58;;;7.97;;
59312;SDS011;45084;51.486;7.366;2023-12-20T08:29:35;22.60;;;8.23;;
59312;SDS011;45084;51.486;7.366;2023-12-20T08:32:01;24.33;;;8.57;;
59312;SDS011;45084;51.486;7.366;2023-12-20T08:34:26;19.23;;;7.43;;
59312;SDS011;45084;51.486;7.366;2023-12-20T08:36:52;18.73;;;7.03;;
59312;SDS011;45084;51.486;7.366;2023-12-20T08:39:18;20.85;;;7.57;;
59312;SDS011;45084;51.486;7.366;2023-12-20T08:41:44;14.10;;;7.85;;
59312;SDS011;45084;51.486;7.366;2023-12-20T08:44:09;18.30;;;7.68;;
59312;SDS011;45084;51.486;7.366;2023-12-20T08:46:35;21.98;;;8.55;;
59312;SDS011;45084;51.486;7.366;2023-12-20T08:49:01;18.33;;;7.72;;
59312;SDS011;45084;51.486;7.366;2023-12-20T08:51:27;25.45;;;7.75;;
59312;SDS011;45084;51.486;7.366;2023-12-20T08:53:54;17.90;;;7.78;;
59312;SDS011;45084;51.486;7.366;2023-12-20T08:56:19;18.52;;;7.75;;
59312;SDS011;45084;51.486;7.366;2023-12-20T08:58:45;19.65;;;6.95;;
59312;SDS011;45084;51.486;7.366;2023-12-20T09:01:12;15.73;;;6.43;;
59312;SDS011;45084;51.486;7.366;2023-12-20T09:03:38;22.50;;;7.35;;
59312;SDS011;45084;51.486;7.366;2023-12-20T09:06:04;20.70;;;7.60;;
59312;SDS011;45084;51.486;7.366;2023-12-20T09:08:30;21.63;;;7.80;;
59312;SDS011;45084;51.486;7.366;2023-12-20T09:10:56;18.70;;;7.10;;
59312;SDS011;45084;51.486;7.366;2023-12-20T09:13:21;23.98;;;8.30;;
59312;SDS011;45084;51.486;7.366;2023-12-20T09:15:52;16.90;;;6.50;;
59312;SDS011;45084;51.486;7.366;2023-12-20T09:18:19;16.88;;;6.20;;
59312;SDS011;45084;51.486;7.366;2023-12-20T09:20:48;20.60;;;7.10;;
59312;SDS011;45084;51.486;7.366;2023-12-20T09:23:13;27.73;;;6.47;;
59312;SDS011;45084;51.486;7.366;2023-12-20T09:25:39;21.02;;;6.70;;
59312;SDS011;45084;51.486;7.366;2023-12-20T09:28:05;22.30;;;6.43;;
59312;SDS011;45084;51.486;7.366;2023-12-20T09:30:30;15.30;;;5.53;;
59312;SDS011;45084;51.486;7.366;2023-12-20T09:32:56;22.65;;;6.03;;
59312;SDS011;45084;51.486;7.366;2023-12-20T09:35:22;18.58;;;6.22;;
59312;SDS011;45084;51.486;7.366;2023-12-20T09:37:48;14.75;;;5.90;;
59312;SDS011;45084;51.486;7.366;2023-12-20T09:40:14;17.98;;;5.80;;
59312;SDS011;45084;51.486;7.366;2023-12-20T09:43:04;17.08;;;5.75;;
59312;SDS011;45084;51.486;7.366;2023-12-20T09:45:30;22.25;;;6.25;;
59312;SDS011;45084;51.486;7.366;2023-12-20T09:47:57;17.95;;;6.53;;
59312;SDS011;45084;51.486;7.366;2023-12-20T09:50:23;18.92;;;5.70;;
59312;SDS011;45084;51.486;7.366;2023-12-20T09:52:52;16.90;;;5.50;;
59312;SDS011;45084;51.486;7.366;2023-12-20T09:55:19;14.27;;;5.72;;
59312;SDS011;45084;51.486;7.366;2023-12-20T09:57:48;14.73;;;5.00;;
59312;SDS011;45084;51.486;7.366;2023-12-20T10:00:14;11.02;;;5.00;;
59312;SDS011;45084;51.486;7.366;2023-12-20T10:02:42;19.98;;;5.57;;
59312;SDS011;45084;51.486;7.366;2023-12-20T10:05:16;26.63;;;5.55;;
59312;SDS011;45084;51.486;7.366;2023-12-20T10:07:46;11.38;;;4.95;;
59312;SDS011;45084;51.486;7.366;2023-12-20T10:10:12;16.27;;;5.47;;
59312;SDS011;45084;51.486;7.366;2023-12-20T10:12:38;11.27;;;4.55;;
59312;SDS011;45084;51.486;7.366;2023-12-20T10:15:05;13.35;;;4.68;;
59312;SDS011;45084;51.486;7.366;2023-12-20T10:17:31;12.30;;;4.55;;
59312;SDS011;45084;51.486;7.366;2023-12-20T10:19:57;15.75;;;5.43;;
59312;SDS011;45084;51.486;7.366;2023-12-20T10:22:23;17.38;;;5.35;;
59312;SDS011;45084;51.486;7.366;2023-12-20T10:24:49;16.60;;;4.70;;
59312;SDS011;45084;51.486;7.366;2023-12-20T10:27:14;21.05;;;5.60;;
59312;SDS011;45084;51.486;7.366;2023-12-20T10:29:44;14.15;;;4.40;;
59312;SDS011;45084;51.486;7.366;2023-12-20T10:34:49;12.43;;;5.35;;
59312;SDS011;45084;51.486;7.366;2023-12-20T10:37:15;13.85;;;4.70;;
59312;SDS011;45084;51.486;7.366;2023-12-20T10:39:41;9.75;;;4.85;;
59312;SDS011;45084;51.486;7.366;2023-12-20T10:42:09;18.35;;;6.00;;
59312;SDS011;45084;51.486;7.366;2023-12-20T10:44:36;19.08;;;6.65;;
59312;SDS011;45084;51.486;7.366;2023-12-20T10:47:02;15.52;;;5.68;;
59312;SDS011;45084;51.486;7.366;2023-12-20T10:49:29;19.58;;;6.18;;
59312;SDS011;45084;51.486;7.366;2023-12-20T10:51:56;14.80;;;5.80;;
59312;SDS011;45084;51.486;7.366;2023-12-20T10:54:27;16.42;;;5.63;;
59312;SDS011;45084;51.486;7.366;2023-12-20T10:56:53;16.88;;;5.50;;
59312;SDS011;45084;51.486;7.366;2023-12-20T10:59:21;22.50;;;6.15;;
59312;SDS011;45084;51.486;7.366;2023-12-20T11:01:49;14.27;;;5.25;;
59312;SDS011;45084;51.486;7.366;2023-12-20T11:04:18;24.00;;;6.07;;
59312;SDS011;45084;51.486;7.366;2023-12-20T11:06:53;14.57;;;5.43;;
59312;SDS011;45084;51.486;7.366;2023-12-20T11:09:24;16.80;;;6.18;;
59312;SDS011;45084;51.486;7.366;2023-12-20T11:12:05;14.68;;;6.05;;
59312;SDS011;45084;51.486;7.366;2023-12-20T11:17:12;19.08;;;5.70;;
59312;SDS011;45084;51.486;7.366;2023-12-20T11:20:12;19.15;;;5.63;;
59312;SDS011;45084;51.486;7.366;2023-12-20T11:22:33;23.02;;;5.85;;
59312;SDS011;45084;51.486;7.366;2023-12-20T11:25:05;19.08;;;5.25;;
59312;SDS011;45084;51.486;7.366;2023-12-20T11:27:36;12.68;;;6.28;;
59312;SDS011;45084;51.486;7.366;2023-12-20T11:30:05;10.73;;;5.10;;
59312;SDS011;45084;51.486;7.366;2023-12-20T11:32:33;20.40;;;5.82;;
59312;SDS011;45084;51.486;7.366;2023-12-20T11:35:00;13.40;;;5.35;;
59312;SDS011;45084;51.486;7.366;2023-12-20T11:37:44;11.52;;;5.80;;
59312;SDS011;45084;51.486;7.366;2023-12-20T11:40:15;20.33;;;6.32;;
59312;SDS011;45084;51.486;7.366;2023-12-20T11:42:42;15.88;;;5.53;;
59312;SDS011;45084;51.486;7.366;2023-12-20T11:45:24;17.20;;;6.05;;
59312;SDS011;45084;51.486;7.366;2023-12-20T11:47:51;14.18;;;5.95;;
59312;SDS011;45084;51.486;7.366;2023-12-20T11:50:19;11.07;;;5.30;;
59312;SDS011;45084;51.486;7.366;2023-12-20T11:52:46;15.40;;;6.35;;
59312;SDS011;45084;51.486;7.366;2023-12-20T11:55:12;13.73;;;6.07;;
59312;SDS011;45084;51.486;7.366;2023-12-20T11:57:38;11.80;;;5.85;;
59312;SDS011;45084;51.486;7.366;2023-12-20T12:00:03;18.35;;;6.50;;
59312;SDS011;45084;51.486;7.366;2023-12-20T12:02:31;13.57;;;6.95;;
59312;SDS011;45084;51.486;7.366;2023-12-20T12:04:57;14.57;;;5.78;;
59312;SDS011;45084;51.486;7.366;2023-12-20T12:07:24;17.02;;;6.38;;
59312;SDS011;45084;51.486;7.366;2023-12-20T12:09:50;14.32;;;6.32;;
59312;SDS011;45084;51.486;7.366;2023-12-20T12:12:16;16.27;;;5.78;;
59312;SDS011;45084;51.486;7.366;2023-12-20T12:14:44;17.00;;;6.38;;
59312;SDS011;45084;51.486;7.366;2023-12-20T12:17:10;13.32;;;6.65;;
59312;SDS011;45084;51.486;7.366;2023-12-20T12:19:39;19.42;;;7.18;;
59312;SDS011;45084;51.486;7.366;2023-12-20T12:22:09;14.88;;;7.65;;
59312;SDS011;45084;51.486;7.366;2023-12-20T12:24:42;19.17;;;7.13;;
59312;SDS011;45084;51.486;7.366;2023-12-20T12:27:09;18.50;;;7.88;;
59312;SDS011;45084;51.486;7.366;2023-12-20T12:29:35;16.52;;;7.57;;
59312;SDS011;45084;51.486;7.366;2023-12-20T12:32:06;15.77;;;8.10;;
59312;SDS011;45084;51.486;7.366;2023-12-20T12:34:33;16.63;;;7.80;;
59312;SDS011;45084;51.486;7.366;2023-12-20T12:36:59;15.90;;;8.35;;
59312;SDS011;45084;51.486;7.366;2023-12-20T12:39:25;20.80;;;8.38;;
59312;SDS011;45084;51.486;7.366;2023-12-20T12:41:51;16.98;;;8.05;;
59312;SDS011;45084;51.486;7.366;2023-12-20T12:44:17;20.02;;;8.13;;
59312;SDS011;45084;51.486;7.366;2023-12-20T12:46:43;17.05;;;6.03;;
59312;SDS011;45084;51.486;7.366;2023-12-20T12:49:14;18.90;;;7.55;;
59312;SDS011;45084;51.486;7.366;2023-12-20T12:51:40;21.23;;;9.00;;
59312;SDS011;45084;51.486;7.366;2023-12-20T12:54:06;19.15;;;8.45;;
59312;SDS011;45084;51.486;7.366;2023-12-20T12:56:32;20.35;;;8.10;;
59312;SDS011;45084;51.486;7.366;2023-12-20T12:58:57;18.83;;;8.15;;
59312;SDS011;45084;51.486;7.366;2023-12-20T13:01:23;16.83;;;7.97;;
59312;SDS011;45084;51.486;7.366;2023-12-20T13:03:49;18.17;;;7.78;;
59312;SDS011;45084;51.486;7.366;2023-12-20T13:06:14;14.48;;;7.95;;
59312;SDS011;45084;51.486;7.366;2023-12-20T13:08:40;18.10;;;8.38;;
59312;SDS011;45084;51.486;7.366;2023-12-20T13:11:06;19.13;;;7.82;;
59312;SDS011;45084;51.486;7.366;2023-12-20T13:13:32;15.93;;;7.15;;
59312;SDS011;45084;51.486;7.366;2023-12-20T13:15:57;16.92;;;7.78;;
59312;SDS011;45084;51.486;7.366;2023-12-20T13:18:23;17.40;;;7.63;;
59312;SDS011;45084;51.486;7.366;2023-12-20T13:20:49;13.60;;;7.00;;
59312;SDS011;45084;51.486;7.366;2023-12-20T13:23:15;19.33;;;8.30;;
59312;SDS011;45084;51.486;7.366;2023-12-20T13:25:43;21.88;;;8.02;;
59312;SDS011;45084;51.486;7.366;2023-12-20T13:28:10;13.68;;;6.72;;
59312;SDS011;45084;51.486;7.366;2023-12-20T13:30:36;16.30;;;7.32;;
59312;SDS011;45084;51.486;7.366;2023-12-20T13:33:02;20.85;;;7.22;;
59312;SDS011;45084;51.486;7.366;2023-12-20T13:35:27;21.30;;;7.88;;
59312;SDS011;45084;51.486;7.366;2023-12-20T13:37:53;19.35;;;7.93;;
59312;SDS011;45084;51.486;7.366;2023-12-20T13:40:19;11.77;;;7.50;;
59312;SDS011;45084;51.486;7.366;2023-12-20T13:42:44;19.10;;;8.55;;
59312;SDS011;45084;51.486;7.366;2023-12-20T13:45:10;17.30;;;7.32;;
59312;SDS011;45084;51.486;7.366;2023-12-20T13:47:36;14.07;;;7.28;;
59312;SDS011;45084;51.486;7.366;2023-12-20T13:50:02;15.88;;;8.13;;
59312;SDS011;45084;51.486;7.366;2023-12-20T13:52:28;15.73;;;8.25;;
59312;SDS011;45084;51.486;7.366;2023-12-20T13:54:54;16.05;;;8.35;;
59312;SDS011;45084;51.486;7.366;2023-12-20T13:57:20;12.57;;;7.57;;
59312;SDS011;45084;51.486;7.366;2023-12-20T13:59:45;16.23;;;8.15;;
59312;SDS011;45084;51.486;7.366;2023-12-20T14:02:11;16.58;;;7.50;;
59312;SDS011;45084;51.486;7.366;2023-12-20T14:04:36;11.45;;;7.35;;
59312;SDS011;45084;51.486;7.366;2023-12-20T14:07:04;10.70;;;6.57;;
59312;SDS011;45084;51.486;7.366;2023-12-20T14:09:30;10.68;;;6.72;;
59312;SDS011;45084;51.486;7.366;2023-12-20T14:11:56;13.50;;;7.35;;
59312;SDS011;45084;51.486;7.366;2023-12-20T14:14:21;14.93;;;7.03;;
59312;SDS011;45084;51.486;7.366;2023-12-20T14:16:47;13.38;;;7.82;;
59312;SDS011;45084;51.486;7.366;2023-12-20T14:19:13;12.20;;;8.05;;
59312;SDS011;45084;51.486;7.366;2023-12-20T14:21:38;18.45;;;8.65;;
59312;SDS011;45084;51.486;7.366;2023-12-20T14:24:04;16.73;;;8.02;;
59312;SDS011;45084;51.486;7.366;2023-12-20T14:26:30;15.77;;;7.63;;
59312;SDS011;45084;51.486;7.366;2023-12-20T14:28:56;14.05;;;8.57;;
59312;SDS011;45084;51.486;7.366;2023-12-20T14:31:22;10.15;;;7.40;;
59312;SDS011;45084;51.486;7.366;2023-12-20T14:33:50;14.55;;;7.60;;